Estación Meteorológica Peña el Pijo (Robertgarden) [ 11/12/19 03:43:06 CET ]

Fecha Hora Presion(HPa) Temp (°C) Humedad % Rocio (°C) Viento ( m/s) Direccion Lluvia 1Hora(mm) Lluvia 24H(mm) LLuvia Total(mm)
2019-May-13 01:01:47 1013.000 13.3 75 8.9         318.05
2019-May-13 02:01:32 1012.800 12.5 77 8.6         318.05
2019-May-13 03:01:46 1012.100 11.8 78 8.1         318.05
2019-May-13 04:01:38 1011.600 11.9 80 8.6         318.05
2019-May-13 05:03:10 1011.300 12.1 80 8.8         318.05
2019-May-13 06:01:36 1011.200 11.2 80 7.9         318.05
2019-May-13 07:01:46 1011.300 10.1 80 6.8         318.05
2019-May-13 08:02:04 1011.200 10.4 82 7.4         318.05
2019-May-13 09:01:43 1011.000 15.2 65 8.6         318.05
2019-May-13 10:01:47 1010.700 20.8 46 8.7         318.05
2019-May-13 11:01:50 1010.200 24.9 39 10.0         318.05
2019-May-13 12:01:31 1009.800 27.4 30 8.3 1.0 E     318.05
2019-May-13 13:01:59 1009.500 28.0 27 7.1 1.4 NE     318.05
2019-May-13 14:01:34 1009.300 26.9 32 8.8         318.05
2019-May-13 15:01:55 1008.900 26.8 33 9.1 1.5 N     318.05
2019-May-13 16:01:51 1008.600 27.3 32 9.1 1.0 NNE     318.05
2019-May-13 17:01:51 1008.700 27.3 30 8.2         318.05
2019-May-13 18:01:47 1008.700 26.9 36 10.5         318.05
2019-May-13 19:01:39 1009.000 23.9 42 10.2         318.05
2019-May-13 20:01:39 1009.400 21.0 47 9.2         318.05
2019-May-13 21:01:54 1010.200 18.1 48 6.8         318.05
2019-May-13 22:01:49 1010.500 15.9 55 6.8         318.05
2019-May-13 23:02:02 1011.300 14.9 63 7.9         318.05

Temperatura Máxima:28°    Temperatura Mínima:10°
Presión Máxima:1013.000 Hpa    Presión Mínima:1008.600 Hpa


Volver